No particular awareness of the weather is required.    There are no Weather-warnings


Meteo18 Weather Cam more information Meteo18 Weather Cam


Thunder radar more information blitzortung!


Rain radar more information rain snow radar


Visit our other weather sites:

Template documentation
and downloads

And another site



Weather Underground History page Text

Daily Summary for September 30, 2017 Units:  English    Metric   Both
« Previous Day
Next Day »
Daily Weekly Monthly Yearly Custom
  High: Low: Average:
Temperature: TemperatureC °F 9.3 °F 14.6 °F
Dew Point: DewpointC °F 8.2 °F 12 °F
Humidity: Humidity % 62 % 85 %
Wind Speed: WindSpeedKMH mph 0.0 mph 2.5 mph
Wind Gust: WindSpeedGustKMH mph - -
Wind:- - West
Pressure: PressurehPa in 1018.5 in -
Precipitation: 11.2 in    
Historical Graphs
 
 
Tabular Data for September 30, 2017
Time Temperature Dew Point Pressure Wind Wind Speed Wind Gust Humidity Rainfall Rate (Hourly)
TemperatureC °F DewpointC °F PressurehPa in Calm     Humidity % HourlyPrecipMM in
00:02 16.9 °F 14.7 °F 1019.2 in WNW 3.2 mph 3.2 mph 87 % 0.0 in
00:12 17.2 °F 14.8 °F 1019.2 in Calm   4.8 mph 86 % 0.0 in
00:17 17.3 °F 14.9 °F 1019.2 in WNW 1.6 mph 4.8 mph 86 % 0.0 in
00:22 17.6 °F 14.9 °F 1019.2 in North 1.6 mph 4.8 mph 84 % 0.0 in
00:32 17.8 °F 14.9 °F 1019.2 in NNE 1.6 mph 3.2 mph 83 % 0.0 in
00:42 17.7 °F 14.8 °F 1018.8 in Calm   3.2 mph 83 % 0.0 in
00:52 17.9 °F 14.8 °F 1018.8 in Calm   1.6 mph 82 % 0.0 in
00:57 17.7 °F 14.8 °F 1018.5 in Calm     83 % 0.0 in
01:02 17.7 °F 14.8 °F 1018.5 in Calm   1.6 mph 83 % 0.0 in
01:12 17.3 °F 14.6 °F 1018.5 in Calm   1.6 mph 84 % 0.0 in
01:17 17.1 °F 14.6 °F 1018.8 in Calm   1.6 mph 85 % 0.0 in
01:22 16.9 °F 14.5 °F 1018.8 in Calm     86 % 0.0 in
01:32 16.8 °F 14.6 °F 1018.8 in Calm   1.6 mph 87 % 0.0 in
01:42 16.7 °F 14.7 °F 1018.5 in Calm   1.6 mph 88 % 0.0 in
01:47 16.7 °F 14.7 °F 1018.5 in Calm   3.2 mph 88 % 0.0 in
01:52 16.7 °F 14.7 °F 1018.5 in Calm   3.2 mph 88 % 0.0 in
01:57 16.9 °F 14.9 °F 1018.5 in Calm   3.2 mph 88 % 0.0 in
02:02 16.9 °F 14.9 °F 1018.5 in Calm   1.6 mph 88 % 0.0 in
02:12 16.9 °F 15.1 °F 1018.8 in Calm   1.6 mph 89 % 0.0 in
02:17 16.9 °F 15.1 °F 1018.8 in Calm   1.6 mph 89 % 0.0 in
02:22 17.0 °F 15.3 °F 1018.8 in NW 1.6 mph 1.6 mph 90 % 0.0 in
02:32 17.4 °F 15.7 °F 1019.2 in WNW 6.4 mph 12.9 mph 90 % 0.0 in
02:42 17.5 °F 15.8 °F 1019.2 in WNW 8.0 mph 16.1 mph 90 % 0.0 in
02:52 17.6 °F 15.9 °F 1019.5 in NW 1.6 mph 14.5 mph 90 % 0.0 in
02:57 17.6 °F 15.9 °F 1019.2 in WNW 3.2 mph 14.5 mph 90 % 0.0 in
03:02 17.7 °F 16.0 °F 1019.2 in WNW 4.8 mph 16.1 mph 90 % 0.0 in
03:12 17.7 °F 15.9 °F 1019.2 in WNW 6.4 mph 16.1 mph 89 % 0.0 in
03:17 17.6 °F 15.8 °F 1019.2 in North 6.4 mph 14.5 mph 89 % 0.0 in
03:27 17.5 °F 15.7 °F 1019.2 in WNW 3.2 mph 14.5 mph 89 % 0.0 in
03:32 17.5 °F 15.7 °F 1019.2 in NW 3.2 mph 12.9 mph 89 % 0.0 in
03:42 17.4 °F 15.4 °F 1018.8 in Calm   11.3 mph 88 % 0.0 in
03:52 17.3 °F 15.3 °F 1019.2 in WNW 1.6 mph 9.7 mph 88 % 0.0 in
03:57 17.3 °F 15.3 °F 1019.2 in WNW 4.8 mph 9.7 mph 88 % 0.0 in
04:02 17.2 °F 15.4 °F 1019.2 in NW 6.4 mph 9.7 mph 89 % 0.0 in
04:12 16.7 °F 15.2 °F 1018.8 in WNW 1.6 mph 9.7 mph 91 % 0.5 in
04:17 16.6 °F 15.1 °F 1018.8 in Calm   9.7 mph 91 % 0.5 in
04:22 16.6 °F 15.3 °F 1018.8 in NNW 1.6 mph 8.0 mph 92 % 0.5 in
04:27 16.4 °F 15.1 °F 1018.8 in NW 1.6 mph 6.4 mph 92 % 0.5 in
04:32 16.4 °F 15.3 °F 1018.8 in NW 1.6 mph 3.2 mph 93 % 0.5 in
04:37 16.4 °F 15.3 °F 1018.8 in Calm   3.2 mph 93 % 0.5 in
04:42 16.3 °F 15.2 °F 1018.8 in Calm   4.8 mph 93 % 0.5 in
04:47 16.3 °F 15.2 °F 1018.8 in West 3.2 mph 4.8 mph 93 % 0.5 in
04:52 16.3 °F 15.2 °F 1018.8 in Calm   4.8 mph 93 % 0.5 in
05:12 16.2 °F 15.2 °F 1019.2 in NW 3.2 mph 11.3 mph 94 % 0.5 in
05:17 16.1 °F 15.1 °F 1019.2 in North 1.6 mph 11.3 mph 94 % 0.5 in
05:22 16.1 °F 15.1 °F 1019.2 in Calm   14.5 mph 94 % 2.5 in
05:32 15.9 °F 14.9 °F 1019.2 in Calm   8.0 mph 94 % 3.0 in
05:37 15.9 °F 14.9 °F 1019.2 in Calm   8.0 mph 94 % 3.0 in
05:42 15.9 °F 14.9 °F 1019.5 in WNW 3.2 mph 6.4 mph 94 % 3.6 in
05:52 15.8 °F 14.8 °F 1019.2 in Calm   4.8 mph 94 % 3.8 in
05:57 15.8 °F 14.8 °F 1019.2 in SW 1.6 mph 4.8 mph 94 % 3.8 in
06:02 15.8 °F 14.8 °F 1019.5 in West 4.8 mph 4.8 mph 94 % 4.1 in
06:12 15.7 °F 14.7 °F 1019.5 in WNW 3.2 mph 6.4 mph 94 % 3.6 in
06:17 15.7 °F 14.7 °F 1019.5 in West 1.6 mph 6.4 mph 94 % 3.6 in
06:22 15.7 °F 14.7 °F 1019.2 in Calm   6.4 mph 94 % 2.0 in
06:32 15.6 °F 14.6 °F 1019.2 in Calm   6.4 mph 94 % 2.0 in
06:42 15.6 °F 14.6 °F 1019.5 in WNW 3.2 mph 4.8 mph 94 % 1.3 in
06:47 15.5 °F 14.5 °F 1019.5 in WNW 1.6 mph 4.8 mph 94 % 1.3 in
06:52 15.4 °F 14.4 °F 1019.5 in West 3.2 mph 6.4 mph 94 % 1.3 in
07:02 15.3 °F 14.3 °F 1019.5 in Calm   6.4 mph 94 % 1.3 in
07:07 15.3 °F 14.3 °F 1019.5 in WNW 4.8 mph 6.4 mph 94 % 1.3 in
07:12 15.3 °F 14.3 °F 1019.5 in WNW 3.2 mph 8.0 mph 94 % 1.3 in
07:17 15.3 °F 14.5 °F 1019.5 in WSW 1.6 mph 8.0 mph 95 % 1.3 in
07:22 15.2 °F 14.4 °F 1019.5 in NW 3.2 mph 11.3 mph 95 % 1.0 in
07:32 14.3 °F 13.2 °F 1019.9 in WNW 4.8 mph 27.4 mph 93 % 1.3 in
07:42 13.9 °F 12.9 °F 1020.2 in North 4.8 mph 27.4 mph 94 % 1.0 in
07:47 13.8 °F 12.9 °F 1020.2 in NW 16.1 mph 27.4 mph 94 % 1.0 in
07:52 13.6 °F 12.7 °F 1020.2 in NNW 4.8 mph 17.7 mph 94 % 1.0 in
07:57 13.4 °F 12.5 °F 1020.5 in WNW 6.4 mph 17.7 mph 94 % 1.0 in
08:02 13.4 °F 12.6 °F 1020.5 in NW 9.7 mph 17.7 mph 95 % 1.0 in
08:12 13.2 °F 12.4 °F 1020.9 in NNW 3.2 mph 16.1 mph 95 % 1.0 in
08:17 13.1 °F 12.3 °F 1020.9 in NW 14.5 mph 16.1 mph 95 % 1.0 in
08:22 13.1 °F 12.3 °F 1020.9 in Calm   19.3 mph 95 % 1.3 in
08:27 12.9 °F 12.1 °F 1020.9 in WNW 16.1 mph 19.3 mph 95 % 1.3 in
08:32 12.8 °F 12.0 °F 1020.9 in NNW 4.8 mph 19.3 mph 95 % 1.5 in
08:42 12.7 °F 11.9 °F 1020.9 in NNW 3.2 mph 19.3 mph 95 % 1.8 in
08:52 12.6 °F 11.8 °F 1020.9 in WNW 8.0 mph 17.7 mph 95 % 2.0 in
08:57 12.6 °F 12.0 °F 1020.9 in NNW 6.4 mph 17.7 mph 96 % 2.0 in
09:02 12.6 °F 12.0 °F 1020.9 in NNW 4.8 mph 16.1 mph 96 % 2.0 in
09:12 12.6 °F 12.0 °F 1020.9 in NW 4.8 mph 12.9 mph 96 % 2.0 in
09:22 12.6 °F 12.0 °F 1021.2 in WNW 4.8 mph 12.9 mph 96 % 1.8 in
09:32 12.6 °F 12.0 °F 1021.2 in NNW 3.2 mph 12.9 mph 96 % 1.5 in
09:42 12.6 °F 12.0 °F 1021.2 in NNW 3.2 mph 9.7 mph 96 % 1.5 in
09:52 12.6 °F 12.0 °F 1021.6 in NW 1.6 mph 12.9 mph 96 % 1.0 in
10:02 12.5 °F 11.9 °F 1021.2 in North 3.2 mph 12.9 mph 96 % 1.0 in
10:12 12.4 °F 11.8 °F 1021.2 in NNE 4.8 mph 14.5 mph 96 % 1.0 in
10:17 12.5 °F 11.9 °F 1021.2 in NNE 1.6 mph 14.5 mph 96 % 1.0 in
10:22 12.5 °F 11.9 °F 1020.9 in North 1.6 mph 9.7 mph 96 % 1.3 in
10:32 12.5 °F 11.9 °F 1020.9 in Calm   6.4 mph 96 % 1.5 in
10:42 12.6 °F 12.0 °F 1021.2 in Calm   6.4 mph 96 % 1.5 in
10:47 12.6 °F 12.0 °F 1021.2 in Calm   6.4 mph 96 % 1.5 in
10:52 12.7 °F 12.1 °F 1021.2 in Calm   1.6 mph 96 % 1.5 in
11:02 12.7 °F 12.1 °F 1021.6 in WNW 1.6 mph 1.6 mph 96 % 1.5 in
11:12 12.8 °F 12.2 °F 1021.6 in WNW 1.6 mph 6.4 mph 96 % 1.3 in
11:22 12.9 °F 12.3 °F 1021.6 in NW 3.2 mph 9.7 mph 96 % 0.5 in
11:32 13.2 °F 12.4 °F 1021.6 in WNW 4.8 mph 9.7 mph 95 % 0.5 in
11:42 13.1 °F 12.3 °F 1021.6 in Calm   6.4 mph 95 % 0.0 in
11:47 13.1 °F 12.2 °F 1021.6 in West 1.6 mph 6.4 mph 94 % 0.0 in
11:52 13.2 °F 12.4 °F 1021.6 in Calm   6.4 mph 95 % 0.0 in
12:02 13.4 °F 12.6 °F 1021.6 in West 4.8 mph 6.4 mph 95 % 0.0 in
12:12 13.7 °F 12.8 °F 1021.6 in Calm   6.4 mph 94 % 0.0 in
12:17 13.8 °F 12.5 °F 1021.6 in WNW 8.0 mph 8.0 mph 92 % 0.0 in
12:22 13.9 °F 12.8 °F 1021.6 in Calm   9.7 mph 93 % 0.0 in
12:32 14.2 °F 12.8 °F 1021.6 in Calm   9.7 mph 91 % 0.0 in
12:42 14.2 °F 12.2 °F 1021.6 in WSW 1.6 mph 11.3 mph 88 % 0.0 in
12:47 14.6 °F 12.5 °F 1021.6 in Calm   11.3 mph 87 % 0.0 in
12:52 14.8 °F 12.1 °F 1021.6 in Calm   6.4 mph 84 % 0.0 in
13:02 15.3 °F 11.5 °F 1021.6 in Calm   6.4 mph 78 % 0.0 in
13:07 15.6 °F 11.6 °F 1021.6 in Calm   6.4 mph 77 % 0.0 in
13:17 16.3 °F 11.9 °F 1021.6 in SW 3.2 mph 4.8 mph 75 % 0.0 in
13:22 16.2 °F 11.1 °F 1021.2 in SSW 4.8 mph 9.7 mph 72 % 0.0 in
13:32 16.2 °F 11.4 °F 1021.2 in SW 1.6 mph 9.7 mph 73 % 0.0 in
13:42 16.2 °F 11.4 °F 1021.2 in WSW 4.8 mph 8.0 mph 73 % 0.0 in
13:47 16.1 °F 11.1 °F 1021.2 in West 3.2 mph 8.0 mph 72 % 0.0 in
13:52 16.1 °F 11.3 °F 1021.2 in SW 4.8 mph 9.7 mph 73 % 0.0 in
14:02 16.2 °F 10.5 °F 1021.2 in WNW 11.3 mph 12.9 mph 69 % 0.0 in
14:12 16.1 °F 10.0 °F 1020.9 in WNW 6.4 mph 16.1 mph 67 % 0.0 in
14:17 16.0 °F 10.1 °F 1020.9 in WNW 6.4 mph 16.1 mph 68 % 0.0 in
14:22 15.9 °F 10.4 °F 1020.9 in Calm   16.1 mph 70 % 0.0 in
14:32 15.8 °F 10.8 °F 1020.9 in WNW 3.2 mph 16.1 mph 72 % 0.0 in
14:42 15.5 °F 10.3 °F 1021.2 in West 9.7 mph 11.3 mph 71 % 0.0 in
14:47 15.4 °F 10.4 °F 1021.2 in WSW 4.8 mph 11.3 mph 72 % 0.0 in
14:52 15.6 °F 10.4 °F 1021.2 in West 8.0 mph 16.1 mph 71 % 0.0 in
14:57 15.9 °F 11.3 °F 1020.9 in West 3.2 mph 16.1 mph 74 % 0.0 in
15:02 15.9 °F 11.1 °F 1021.2 in West 6.4 mph 11.3 mph 73 % 0.0 in
15:12 16.2 °F 10.7 °F 1020.9 in West 6.4 mph 17.7 mph 70 % 0.0 in
15:17 16.1 °F 10.8 °F 1020.9 in NW 3.2 mph 17.7 mph 71 % 0.0 in
15:22 16.4 °F 11.1 °F 1020.9 in WSW 6.4 mph 16.1 mph 71 % 0.0 in
15:32 16.2 °F 10.7 °F 1020.9 in SW 4.8 mph 19.3 mph 70 % 0.0 in
15:37 16.2 °F 10.7 °F 1020.9 in WSW 9.7 mph 19.3 mph 70 % 0.0 in
15:42 16.5 °F 10.8 °F 1020.9 in West 4.8 mph 20.9 mph 69 % 0.0 in
15:47 16.6 °F 10.2 °F 1020.9 in West 9.7 mph 20.9 mph 66 % 0.0 in
15:52 16.7 °F 10.3 °F 1020.9 in WSW 8.0 mph 20.9 mph 66 % 0.0 in
15:57 16.8 °F 10.0 °F 1020.9 in Calm   20.9 mph 64 % 0.0 in
16:02 16.9 °F 10.5 °F 1020.9 in West 9.7 mph 17.7 mph 66 % 0.0 in
16:12 16.7 °F 9.6 °F 1020.5 in WNW 14.5 mph 14.5 mph 63 % 0.0 in
16:17 16.6 °F 9.3 °F 1020.9 in West 6.4 mph 14.5 mph 62 % 0.0 in
16:22 16.6 °F 9.8 °F 1020.9 in NW 4.8 mph 14.5 mph 64 % 0.0 in
16:32 16.9 °F 9.8 °F 1020.9 in NW 4.8 mph 14.5 mph 63 % 0.0 in
16:42 16.9 °F 10.0 °F 1021.2 in WNW 16.1 mph 16.1 mph 64 % 0.0 in
16:47 17.3 °F 10.4 °F 1021.2 in West 6.4 mph 16.1 mph 64 % 0.0 in
16:52 17.1 °F 10.0 °F 1021.2 in West 4.8 mph 16.1 mph 63 % 0.0 in
16:57 17.1 °F 10.0 °F 1021.2 in NW 4.8 mph 16.1 mph 63 % 0.0 in
17:02 17.1 °F 10.5 °F 1021.6 in West 3.2 mph 16.1 mph 65 % 0.0 in
17:12 17.1 °F 9.8 °F 1021.2 in WNW 8.0 mph 16.1 mph 62 % 0.0 in
17:17 16.8 °F 10.0 °F 1021.2 in NW 3.2 mph 14.5 mph 64 % 0.0 in
17:22 16.7 °F 10.3 °F 1021.2 in NW 4.8 mph 19.3 mph 66 % 0.0 in
17:32 16.4 °F 9.8 °F 1021.2 in NW 9.7 mph 19.3 mph 65 % 0.0 in
17:42 16.3 °F 9.9 °F 1021.2 in WNW 3.2 mph 14.5 mph 66 % 0.0 in
17:47 16.2 °F 9.8 °F 1021.2 in Calm   11.3 mph 66 % 0.0 in
17:57 15.9 °F 9.8 °F 1021.2 in Calm   8.0 mph 67 % 0.0 in
18:02 15.8 °F 9.9 °F 1021.2 in WNW 1.6 mph 6.4 mph 68 % 0.0 in
18:12 15.6 °F 10.1 °F 1021.6 in WNW 1.6 mph 4.8 mph 70 % 0.0 in
18:17 15.6 °F 10.1 °F 1021.6 in Calm   4.8 mph 70 % 0.0 in
18:22 15.6 °F 10.1 °F 1021.6 in West 1.6 mph 4.8 mph 70 % 0.0 in
18:32 15.6 °F 10.1 °F 1021.6 in West 4.8 mph 4.8 mph 70 % 0.0 in
18:37 15.6 °F 10.1 °F 1021.6 in Calm   6.4 mph 70 % 0.0 in
18:42 15.6 °F 10.4 °F 1021.6 in West 1.6 mph 6.4 mph 71 % 0.0 in
18:52 15.9 °F 10.9 °F 1021.6 in Calm   6.4 mph 72 % 0.0 in
18:57 16.2 °F 11.6 °F 1021.6 in Calm   4.8 mph 74 % 0.0 in
19:02 16.1 °F 10.8 °F 1021.6 in WNW 3.2 mph 4.8 mph 71 % 0.0 in
19:12 15.5 °F 10.7 °F 1021.9 in Calm   3.2 mph 73 % 0.0 in
19:17 15.2 °F 10.8 °F 1021.9 in West 1.6 mph 4.8 mph 75 % 0.0 in
19:22 14.8 °F 10.8 °F 1021.9 in Calm   4.8 mph 77 % 0.0 in
19:32 14.1 °F 10.5 °F 1021.9 in Calm   4.8 mph 79 % 0.0 in
19:37 13.9 °F 10.7 °F 1021.9 in Calm   4.8 mph 81 % 0.0 in
19:42 13.7 °F 10.9 °F 1021.9 in Calm   4.8 mph 83 % 0.0 in
19:47 13.4 °F 10.9 °F 1021.9 in Calm   1.6 mph 85 % 0.0 in
19:52 13.1 °F 10.8 °F 1022.2 in Calm     86 % 0.0 in
20:02 12.7 °F 10.8 °F 1021.9 in Calm   1.6 mph 88 % 0.0 in
20:12 12.3 °F 10.5 °F 1021.9 in Calm   1.6 mph 89 % 0.0 in
20:17 12.2 °F 10.6 °F 1022.2 in Calm   1.6 mph 90 % 0.0 in
20:22 12.1 °F 10.5 °F 1022.2 in Calm   1.6 mph 90 % 0.0 in
20:27 12.0 °F 10.4 °F 1022.2 in Calm   1.6 mph 90 % 0.0 in
20:32 11.9 °F 10.1 °F 1022.2 in Calm   1.6 mph 89 % 0.0 in
20:42 11.7 °F 9.9 °F 1022.6 in Calm   1.6 mph 89 % 0.0 in
20:47 11.7 °F 10.1 °F 1022.6 in Calm   1.6 mph 90 % 0.0 in
20:52 11.6 °F 10.0 °F 1022.6 in Calm   1.6 mph 90 % 0.0 in
20:57 11.6 °F 10.2 °F 1022.6 in Calm   1.6 mph 91 % 0.0 in
21:02 11.4 °F 10.0 °F 1022.9 in Calm   1.6 mph 91 % 0.0 in
21:07 11.3 °F 9.9 °F 1022.6 in Calm     91 % 0.0 in
21:12 11.2 °F 9.8 °F 1022.6 in Calm     91 % 0.0 in
21:17 11.3 °F 10.0 °F 1022.6 in Calm     92 % 0.0 in
21:22 11.4 °F 10.0 °F 1022.6 in Calm   1.6 mph 91 % 0.0 in
21:27 11.3 °F 9.7 °F 1022.9 in Calm   1.6 mph 90 % 0.0 in
21:32 11.1 °F 9.7 °F 1022.9 in Calm   1.6 mph 91 % 0.0 in
21:37 11.0 °F 9.6 °F 1022.6 in Calm   1.6 mph 91 % 0.0 in
21:47 11.2 °F 9.9 °F 1022.6 in Calm   1.6 mph 92 % 0.0 in
21:52 11.1 °F 9.7 °F 1022.6 in Calm   1.6 mph 91 % 0.0 in
21:57 10.9 °F 9.5 °F 1022.9 in Calm     91 % 0.0 in
22:02 10.8 °F 9.6 °F 1022.6 in Calm     92 % 0.0 in
22:12 10.7 °F 9.5 °F 1022.9 in Calm     92 % 0.0 in
22:17 10.6 °F 9.4 °F 1022.6 in Calm     92 % 0.0 in
22:22 10.5 °F 9.3 °F 1022.9 in Calm   1.6 mph 92 % 0.0 in
22:32 10.5 °F 9.4 °F 1022.6 in Calm   1.6 mph 93 % 0.0 in
22:42 10.4 °F 9.2 °F 1022.6 in Calm   1.6 mph 92 % 0.0 in
22:47 10.4 °F 9.2 °F 1022.6 in Calm   1.6 mph 92 % 0.0 in
22:52 10.3 °F 9.1 °F 1022.6 in Calm   1.6 mph 92 % 0.0 in
22:57 10.2 °F 9.0 °F 1022.6 in Calm   1.6 mph 92 % 0.0 in
23:02 10.2 °F 9.1 °F 1022.6 in Calm   1.6 mph 93 % 0.0 in
23:12 10.0 °F 8.9 °F 1022.2 in Calm   1.6 mph 93 % 0.0 in
23:17 10.1 °F 9.0 °F 1022.6 in Calm   1.6 mph 93 % 0.0 in
23:22 10.1 °F 9.0 °F 1022.6 in Calm   1.6 mph 93 % 0.0 in
23:27 10.1 °F 9.0 °F 1022.2 in Calm   1.6 mph 93 % 0.0 in
23:32 10.1 °F 9.0 °F 1022.2 in Calm   1.6 mph 93 % 0.0 in
23:42 9.8 °F 8.7 °F 1022.2 in Calm     93 % 0.0 in
23:47 9.7 °F 8.6 °F 1022.2 in Calm     93 % 0.0 in
23:52 9.5 °F 8.4 °F 1022.2 in Calm   1.6 mph 93 % 0.0 in
23:57 9.3 °F 8.2 °F 1022.6 in Calm   1.6 mph 93 % 0.0 in
Meteo18
Compliments of Weather Underground - 4 mb

Script developed by  Jim McMurry - jmcmurry@mwt.net Adapted for the template by  Wim van der Kuil - Leuven-Template.eu

You find our weather info also at:

European Weather Network

Weather Underground

Equipment we use:

Weather-station
Davis Vue

Weather-program
Meteobridge

Weather-server
Raspberry PI 2 B+

Provider
1 and 1

Davis Vue

Meteobridge

Raspberry PI 2 B+

1 and 1